createdAt,value
2022-11-07T00:02:27.824Z,99265.09
2022-11-07T00:05:16.784Z,99282.56
2022-11-07T00:08:04.118Z,99282.03
2022-11-07T00:10:55.715Z,99288.03
2022-11-07T00:13:43.196Z,99275.97
2022-11-07T00:16:30.703Z,99276.22
2022-11-07T00:19:20.161Z,99279.63
2022-11-07T00:22:08.683Z,99280.22
2022-11-07T00:24:56.202Z,99279.41
2022-11-07T00:27:43.635Z,99278.06
2022-11-07T00:30:30.976Z,99281.44
2022-11-07T00:33:18.200Z,99278.06
2022-11-07T00:36:06.263Z,99287.69
2022-11-07T00:38:55.286Z,99284.84
2022-11-07T00:41:42.426Z,99285.88
2022-11-07T00:44:29.699Z,99291.63
2022-11-07T00:47:17.162Z,99285.63
2022-11-07T00:50:04.625Z,99286.41
2022-11-07T00:52:52.166Z,99296.28
2022-11-07T00:55:40.913Z,99300.28
2022-11-07T00:58:28.465Z,99299.00
2022-11-07T01:01:20.057Z,99294.56
2022-11-07T01:04:25.104Z,99302.94
2022-11-07T01:07:13.029Z,99304.78
2022-11-07T01:10:00.451Z,99313.13
2022-11-07T01:12:49.040Z,99315.56
2022-11-07T01:15:36.650Z,99312.50
2022-11-07T01:18:23.934Z,99311.47
2022-11-07T01:21:16.268Z,99317.53
2022-11-07T01:24:04.198Z,99310.75
2022-11-07T01:26:51.966Z,99315.16
2022-11-07T01:29:40.907Z,99316.44
2022-11-07T01:32:28.189Z,99309.09
2022-11-07T01:35:16.177Z,99312.72
2022-11-07T01:38:03.852Z,99314.31
2022-11-07T01:41:09.000Z,99315.34
2022-11-07T01:44:00.167Z,99318.47
2022-11-07T01:46:50.269Z,99316.44
2022-11-07T01:49:42.506Z,99313.34
2022-11-07T01:52:34.652Z,99308.66
2022-11-07T01:55:27.824Z,99305.03
2022-11-07T01:58:15.488Z,99303.75
2022-11-07T02:01:03.342Z,99306.13
2022-11-07T02:03:53.495Z,99300.69
2022-11-07T02:06:47.800Z,99299.88
2022-11-07T02:09:35.787Z,99291.81
2022-11-07T02:12:26.470Z,99299.97
2022-11-07T02:15:14.008Z,99295.75
2022-11-07T02:18:02.947Z,99300.97
2022-11-07T02:20:53.508Z,99306.19
2022-11-07T02:23:48.156Z,99301.22
2022-11-07T02:26:38.563Z,99304.53
2022-11-07T02:29:28.185Z,99311.84
2022-11-07T02:32:15.828Z,99313.41
2022-11-07T02:35:07.644Z,99312.38
2022-11-07T02:37:56.136Z,99297.84
2022-11-07T02:40:45.814Z,99294.19
2022-11-07T02:43:39.315Z,99287.94
2022-11-07T02:46:28.511Z,99290.06
2022-11-07T02:53:00.859Z,99289.53
2022-11-07T02:55:55.637Z,99284.31
2022-11-07T03:00:23.821Z,99281.16
2022-11-07T03:09:18.150Z,99282.09
2022-11-07T03:12:43.720Z,99287.31
2022-11-07T03:19:10.067Z,99288.88
2022-11-07T03:22:01.045Z,99289.69
2022-11-07T03:24:48.528Z,99295.69
2022-11-07T03:27:37.192Z,99305.41
2022-11-07T03:34:01.499Z,99296.31
2022-11-07T03:37:05.596Z,99301.06
2022-11-07T03:43:34.312Z,99309.41
2022-11-07T03:46:21.780Z,99303.94
2022-11-07T03:53:33.694Z,99311.28
2022-11-07T04:01:29.281Z,99337.16
2022-11-07T04:04:26.123Z,99335.34
2022-11-07T04:08:37.442Z,99332.97
2022-11-07T04:20:43.507Z,99344.91
2022-11-07T04:28:04.727Z,99353.88
2022-11-07T04:34:13.479Z,99352.88
2022-11-07T04:37:02.145Z,99346.38
2022-11-07T04:56:10.696Z,99348.88
2022-11-07T04:59:13.221Z,99336.34
2022-11-07T05:05:17.780Z,99330.66
2022-11-07T05:08:34.353Z,99338.72
2022-11-07T05:11:23.135Z,99334.31
2022-11-07T05:14:10.861Z,99337.44
2022-11-07T05:17:01.486Z,99338.25
2022-11-07T05:20:08.239Z,99327.00
2022-11-07T05:23:37.761Z,99336.91
2022-11-07T05:34:09.753Z,99344.97
2022-11-07T05:37:20.946Z,99341.56
2022-11-07T05:40:17.452Z,99334.31
2022-11-07T05:43:09.786Z,99345.28
2022-11-07T05:46:14.714Z,99348.19
2022-11-07T05:49:04.821Z,99345.34
2022-11-07T05:51:52.410Z,99342.78
2022-11-07T05:54:39.943Z,99359.31
2022-11-07T05:57:27.206Z,99348.59
2022-11-07T06:00:17.619Z,99354.38
2022-11-07T06:03:05.650Z,99346.56
2022-11-07T06:05:53.281Z,99354.16
2022-11-07T06:08:40.636Z,99349.72
2022-11-07T06:11:51.819Z,99352.56
2022-11-07T06:19:26.925Z,99360.34
2022-11-07T06:22:21.282Z,99370.28
2022-11-07T06:25:09.844Z,99364.03
2022-11-07T06:28:02.108Z,99362.78
2022-11-07T06:31:23.888Z,99364.34
2022-11-07T06:34:11.538Z,99373.75
2022-11-07T06:37:02.902Z,99382.38
2022-11-07T06:39:56.275Z,99372.72
2022-11-07T06:43:18.817Z,99368.03
2022-11-07T06:46:17.084Z,99375.41
2022-11-07T06:49:04.586Z,99376.47
2022-11-07T06:51:53.383Z,99381.19
2022-11-07T06:54:41.037Z,99381.72
2022-11-07T06:57:30.422Z,99381.25
2022-11-07T07:00:18.695Z,99386.22
2022-11-07T07:03:07.099Z,99403.47
2022-11-07T07:05:36.800Z,99399.31
2022-11-07T07:08:08.139Z,99402.81
2022-11-07T07:10:40.135Z,99408.31
2022-11-07T07:13:45.532Z,99409.13
2022-11-07T07:16:14.663Z,99417.22
2022-11-07T07:18:49.870Z,99423.81
2022-11-07T07:21:18.877Z,99418.59
2022-11-07T07:23:49.497Z,99421.72
2022-11-07T07:26:39.556Z,99421.97
2022-11-07T07:33:27.402Z,99439.41
2022-11-07T07:35:59.139Z,99449.94
2022-11-07T07:38:52.442Z,99432.19
2022-11-07T07:44:17.914Z,99442.94
2022-11-07T07:46:47.266Z,99435.38
2022-11-07T07:49:18.059Z,99438.31
2022-11-07T07:51:47.420Z,99435.47
2022-11-07T07:54:17.022Z,99448.03
2022-11-07T07:56:46.424Z,99447.53
2022-11-07T07:59:15.901Z,99447.03
2022-11-07T08:01:45.409Z,99452.34
2022-11-07T08:04:14.914Z,99452.63
2022-11-07T08:06:45.676Z,99445.56
2022-11-07T08:09:15.130Z,99455.53
2022-11-07T08:11:44.508Z,99453.72
2022-11-07T08:14:14.398Z,99460.81
2022-11-07T08:16:43.856Z,99455.09
2022-11-07T08:19:13.362Z,99454.09
2022-11-07T08:21:44.343Z,99451.00
2022-11-07T08:24:14.065Z,99455.19
2022-11-07T08:26:43.463Z,99451.03
2022-11-07T08:29:13.254Z,99454.22
2022-11-07T08:31:42.651Z,99459.75
2022-11-07T08:34:12.235Z,99449.28
2022-11-07T08:36:41.589Z,99441.19
2022-11-07T08:39:12.589Z,99459.56
2022-11-07T08:41:42.874Z,99460.66
2022-11-07T08:44:12.554Z,99458.56
2022-11-07T08:46:41.957Z,99459.41
2022-11-07T08:49:11.560Z,99456.31
2022-11-07T08:51:40.997Z,99457.38
2022-11-07T08:54:12.632Z,99457.38
2022-11-07T08:56:41.986Z,99464.97
2022-11-07T08:59:11.753Z,99460.50
2022-11-07T09:02:15.024Z,99456.63
2022-11-07T09:04:30.783Z,99455.03
2022-11-07T09:07:00.148Z,99462.88
2022-11-07T09:09:30.947Z,99452.16
2022-11-07T09:12:00.430Z,99459.75
2022-11-07T09:14:30.114Z,99459.75
2022-11-07T09:17:00.141Z,99458.94
2022-11-07T09:19:29.862Z,99466.28
2022-11-07T09:21:59.237Z,99462.31
2022-11-07T09:24:30.030Z,99460.72
2022-11-07T09:26:59.479Z,99473.81
2022-11-07T09:29:28.884Z,99472.75
2022-11-07T09:31:58.326Z,99468.59
2022-11-07T09:34:27.767Z,99464.66
2022-11-07T09:36:57.204Z,99458.91
2022-11-07T09:39:26.636Z,99469.63
2022-11-07T09:42:05.635Z,99474.53
2022-11-07T09:44:56.123Z,99473.47
2022-11-07T09:47:33.781Z,99479.50
2022-11-07T09:50:12.740Z,99477.41
2022-11-07T09:52:48.538Z,99475.34
2022-11-07T09:55:24.970Z,99487.88
2022-11-07T09:58:00.218Z,99487.88
2022-11-07T10:00:33.049Z,99486.31
2022-11-07T10:03:05.456Z,99502.25
2022-11-07T10:05:52.642Z,99498.00
2022-11-07T10:08:29.409Z,99493.00
2022-11-07T10:11:01.392Z,99488.56
2022-11-07T10:14:00.720Z,99499.03
2022-11-07T10:16:49.132Z,99493.56
2022-11-07T10:19:33.505Z,99492.50
2022-11-07T10:22:20.447Z,99495.13
2022-11-07T10:25:16.172Z,99492.50
2022-11-07T10:27:48.912Z,99500.13
2022-11-07T10:30:22.265Z,99506.91
2022-11-07T10:33:01.358Z,99509.28
2022-11-07T10:35:33.441Z,99501.50
2022-11-07T10:38:09.989Z,99503.22
2022-11-07T10:40:42.995Z,99502.59
2022-11-07T10:43:22.064Z,99505.06
2022-11-07T10:45:54.397Z,99501.72
2022-11-07T10:48:23.804Z,99495.16
2022-11-07T10:50:54.152Z,99506.69
2022-11-07T10:53:26.205Z,99506.69
2022-11-07T10:55:56.810Z,99507.25
2022-11-07T10:58:30.327Z,99507.53
2022-11-07T11:01:07.456Z,99498.88
2022-11-07T11:03:45.211Z,99501.47
2022-11-07T11:06:25.652Z,99500.47
2022-11-07T11:08:55.205Z,99495.22
2022-11-07T11:11:32.822Z,99490.50
2022-11-07T11:14:08.658Z,99501.78
2022-11-07T11:16:42.186Z,99499.16
2022-11-07T11:19:23.705Z,99497.84
2022-11-07T11:21:56.142Z,99490.00
2022-11-07T11:24:37.677Z,99487.69
2022-11-07T11:27:15.773Z,99484.28
2022-11-07T11:29:53.144Z,99487.47
2022-11-07T11:32:30.279Z,99478.56
2022-11-07T11:35:10.067Z,99476.75
2022-11-07T11:37:44.172Z,99481.47
2022-11-07T11:40:19.037Z,99469.97
2022-11-07T11:42:56.169Z,99468.09
2022-11-07T11:45:35.902Z,99479.38
2022-11-07T11:48:23.420Z,99466.03
2022-11-07T11:50:58.493Z,99467.09
2022-11-07T11:53:29.744Z,99456.88
2022-11-07T11:56:18.732Z,99457.13
2022-11-07T11:58:57.726Z,99450.06
2022-11-07T12:01:37.402Z,99455.59
2022-11-07T12:04:33.049Z,99453.50
2022-11-07T12:07:13.281Z,99450.94
2022-11-07T12:09:49.613Z,99450.94
2022-11-07T12:12:30.080Z,99457.25
2022-11-07T12:15:19.903Z,99446.81
2022-11-07T12:17:56.016Z,99450.22
2022-11-07T12:20:31.503Z,99455.22
2022-11-07T12:23:16.991Z,99433.25
2022-11-07T12:25:56.629Z,99440.59
2022-11-07T12:28:40.225Z,99434.34
2022-11-07T12:31:28.112Z,99440.63
2022-11-07T12:34:15.656Z,99429.63
2022-11-07T12:37:06.510Z,99438.03
2022-11-07T12:39:58.906Z,99426.00
2022-11-07T12:42:42.383Z,99438.88
2022-11-07T12:45:22.329Z,99431.22
2022-11-07T12:48:24.976Z,99435.97
2022-11-07T12:51:04.411Z,99426.28
2022-11-07T12:53:46.815Z,99429.66
2022-11-07T12:56:21.982Z,99424.69
2022-11-07T12:58:53.030Z,99424.69
2022-11-07T13:01:29.756Z,99416.56
2022-11-07T13:04:12.371Z,99419.19
2022-11-07T13:06:47.151Z,99424.41
2022-11-07T13:09:27.708Z,99410.81
2022-11-07T13:12:06.484Z,99412.94
2022-11-07T13:14:40.412Z,99412.94
2022-11-07T13:17:20.253Z,99412.41
2022-11-07T13:20:01.721Z,99410.59
2022-11-07T13:22:37.212Z,99412.66
2022-11-07T13:25:29.795Z,99420.78
2022-11-07T13:28:23.496Z,99419.75
2022-11-07T13:31:05.208Z,99422.88
2022-11-07T13:33:38.744Z,99421.31
2022-11-07T13:36:23.942Z,99425.75
2022-11-07T13:38:57.054Z,99420.75
2022-11-07T13:41:28.251Z,99414.44
2022-11-07T13:44:00.818Z,99424.16
2022-11-07T13:46:36.041Z,99424.41
2022-11-07T13:49:13.021Z,99416.31
2022-11-07T13:51:46.155Z,99421.28
2022-11-07T13:54:27.107Z,99418.13
2022-11-07T13:57:00.937Z,99428.06
2022-11-07T13:59:42.065Z,99414.19
2022-11-07T14:02:21.666Z,99416.56
2022-11-07T14:07:49.785Z,99424.16
2022-11-07T14:10:27.519Z,99429.16
2022-11-07T14:13:08.801Z,99430.69
2022-11-07T14:15:45.327Z,99429.38
2022-11-07T14:18:16.681Z,99418.38
2022-11-07T14:20:50.998Z,99415.50
2022-11-07T14:23:23.332Z,99417.06
2022-11-07T14:25:58.712Z,99432.53
2022-11-07T14:28:37.337Z,99423.88
2022-11-07T14:31:13.869Z,99423.06
2022-11-07T14:33:50.439Z,99411.81
2022-11-07T14:36:20.435Z,99426.75
2022-11-07T14:38:51.825Z,99423.63
2022-11-07T14:41:22.097Z,99419.41
2022-11-07T14:44:17.426Z,99425.69
2022-11-07T14:46:47.884Z,99414.41
2022-11-07T14:49:25.487Z,99423.88
2022-11-07T14:51:56.347Z,99420.47
2022-11-07T14:54:34.173Z,99428.06
2022-11-07T14:57:04.296Z,99423.06
2022-11-07T14:59:35.698Z,99418.09
2022-11-07T15:02:28.927Z,99425.41
2022-11-07T15:05:06.882Z,99428.03
2022-11-07T15:07:48.916Z,99422.78
2022-11-07T15:10:31.149Z,99426.22
2022-11-07T15:13:03.161Z,99426.22
2022-11-07T15:15:36.219Z,99433.03
2022-11-07T15:18:07.953Z,99425.41
2022-11-07T15:20:40.222Z,99422.53
2022-11-07T15:23:29.958Z,99420.97
2022-11-07T15:26:04.457Z,99423.06
2022-11-07T15:28:47.498Z,99433.28
2022-11-07T15:31:25.045Z,99425.41
2022-11-07T15:33:56.786Z,99422.78
2022-11-07T15:36:27.368Z,99427.00
2022-11-07T15:38:58.471Z,99432.25
2022-11-07T15:41:27.824Z,99431.72
2022-11-07T15:43:57.252Z,99431.72
2022-11-07T15:46:34.575Z,99436.41
2022-11-07T15:49:04.650Z,99433.78
2022-11-07T15:51:34.319Z,99428.53
2022-11-07T15:54:03.784Z,99437.72
2022-11-07T15:56:33.626Z,99435.91
2022-11-07T15:59:04.676Z,99432.22
2022-11-07T16:01:35.522Z,99440.88
2022-11-07T16:04:06.420Z,99442.19
2022-11-07T16:06:36.451Z,99448.47
2022-11-07T16:09:07.756Z,99441.13
2022-11-07T16:11:37.247Z,99441.66
2022-11-07T16:14:36.455Z,99442.66
2022-11-07T16:16:57.560Z,99433.25
2022-11-07T16:19:31.074Z,99435.88
2022-11-07T16:22:00.630Z,99431.41
2022-11-07T16:24:30.040Z,99428.53
2022-11-07T16:26:59.911Z,99431.16
2022-11-07T16:29:29.399Z,99420.69
2022-11-07T16:32:00.167Z,99432.88
2022-11-07T16:34:29.561Z,99434.38
2022-11-07T16:36:58.853Z,99428.03
2022-11-07T16:39:28.273Z,99426.47
2022-11-07T16:41:57.651Z,99429.59
2022-11-07T16:44:27.187Z,99434.84
2022-11-07T16:46:57.421Z,99435.09
2022-11-07T16:49:32.501Z,99438.78
2022-11-07T16:52:02.167Z,99436.91
2022-11-07T16:54:31.643Z,99457.88
2022-11-07T16:57:02.137Z,99450.53
2022-11-07T16:59:31.624Z,99446.84
2022-11-07T17:02:01.111Z,99441.59
2022-11-07T17:04:32.082Z,99442.13
2022-11-07T17:07:01.479Z,99447.09
2022-11-07T17:09:30.896Z,99441.31
2022-11-07T17:12:00.430Z,99443.13
2022-11-07T17:14:29.832Z,99453.91
2022-11-07T17:17:02.151Z,99449.16
2022-11-07T17:19:33.096Z,99448.38
2022-11-07T17:22:03.538Z,99445.19
2022-11-07T17:24:33.158Z,99437.34
2022-11-07T17:27:02.569Z,99446.25
2022-11-07T17:29:31.967Z,99439.41
2022-11-07T17:32:01.393Z,99441.00
2022-11-07T17:34:32.235Z,99437.59
2022-11-07T17:37:01.723Z,99434.16
2022-11-07T17:39:31.203Z,99444.66
2022-11-07T17:42:00.782Z,99449.38
2022-11-07T17:44:30.175Z,99447.78
2022-11-07T17:47:01.950Z,99450.13
2022-11-07T17:49:32.802Z,99450.69
2022-11-07T17:52:02.241Z,99449.38
2022-11-07T17:54:31.642Z,99454.91
2022-11-07T17:57:01.017Z,99452.81
2022-11-07T17:59:30.383Z,99455.69
2022-11-07T18:01:59.968Z,99457.00
2022-11-07T18:04:29.417Z,99456.19
2022-11-07T18:07:00.197Z,99453.56
2022-11-07T18:09:29.589Z,99455.13
2022-11-07T18:11:59.048Z,99457.75
2022-11-07T18:14:28.446Z,99458.78
2022-11-07T18:16:57.890Z,99458.00
2022-11-07T18:19:27.281Z,99462.47
2022-11-07T18:21:56.723Z,99463.25
2022-11-07T18:24:27.501Z,99460.38
2022-11-07T18:26:56.965Z,99451.50
2022-11-07T18:29:26.324Z,99453.06
2022-11-07T18:31:55.778Z,99455.66
2022-11-07T18:34:25.112Z,99449.88
2022-11-07T18:36:54.601Z,99452.00
2022-11-07T18:39:24.880Z,99450.38
2022-11-07T18:41:55.951Z,99450.38
2022-11-07T18:44:25.401Z,99449.88
2022-11-07T18:46:54.772Z,99455.38
2022-11-07T18:49:24.543Z,99444.09
2022-11-07T18:51:53.928Z,99453.00
2022-11-07T18:54:23.372Z,99455.63
2022-11-07T18:56:54.219Z,99446.69
2022-11-07T18:59:23.860Z,99438.28
2022-11-07T19:01:53.428Z,99449.03
2022-11-07T19:04:22.773Z,99436.19
2022-11-07T19:06:58.127Z,99444.84
2022-11-07T19:09:30.200Z,99440.41
2022-11-07T19:12:02.367Z,99433.84
2022-11-07T19:14:32.461Z,99445.66
2022-11-07T19:17:01.829Z,99438.59
2022-11-07T19:19:32.191Z,99447.75
2022-11-07T19:22:01.710Z,99451.44
2022-11-07T19:24:31.110Z,99444.59
2022-11-07T19:27:02.088Z,99454.31
2022-11-07T19:29:31.905Z,99447.47
2022-11-07T19:32:02.199Z,99451.63
2022-11-07T19:34:31.594Z,99440.59
2022-11-07T19:37:09.008Z,99447.97
2022-11-07T19:39:45.599Z,99441.16
2022-11-07T19:42:31.060Z,99455.00
2022-11-07T19:45:11.049Z,99446.91
2022-11-07T19:47:59.432Z,99458.72
2022-11-07T19:50:36.316Z,99453.25
2022-11-07T19:53:18.446Z,99445.13
2022-11-07T19:55:54.482Z,99442.78
2022-11-07T19:58:40.064Z,99443.53
2022-11-07T20:55:18.039Z,99464.56
2022-11-07T20:57:48.184Z,99466.38
2022-11-07T21:00:20.530Z,99465.84
2022-11-07T21:02:50.681Z,99471.06
2022-11-07T21:05:39.118Z,99465.59
2022-11-07T21:08:29.670Z,99480.19
2022-11-07T21:11:20.609Z,99484.19
2022-11-07T21:14:09.296Z,99481.06
2022-11-07T21:16:57.700Z,99476.88
2022-11-07T21:19:45.917Z,99468.03
2022-11-07T21:22:35.733Z,99475.84
2022-11-07T21:25:25.614Z,99464.09
2022-11-07T21:28:17.849Z,99468.00
2022-11-07T21:31:08.295Z,99467.25
2022-11-07T21:33:57.283Z,99446.56
2022-11-07T21:36:45.767Z,99451.84
2022-11-07T21:39:34.448Z,99457.88
2022-11-07T21:42:25.954Z,99462.78
2022-11-07T21:45:15.765Z,99460.72
2022-11-07T21:48:04.548Z,99452.88
2022-11-07T21:50:53.031Z,99450.50
2022-11-07T21:53:47.771Z,99448.69
2022-11-07T21:56:38.338Z,99448.16
2022-11-07T21:59:26.758Z,99446.56
2022-11-07T22:02:16.690Z,99438.50
2022-11-07T22:05:18.273Z,99436.13
2022-11-07T22:08:06.990Z,99433.50
2022-11-07T22:10:57.991Z,99428.78
2022-11-07T22:13:53.099Z,99418.88
2022-11-07T22:16:44.137Z,99431.22
2022-11-07T22:19:37.679Z,99415.03
2022-11-07T22:22:26.505Z,99410.56
2022-11-07T22:25:14.405Z,99406.63
2022-11-07T22:28:02.860Z,99412.34
2022-11-07T22:30:54.407Z,99411.53
2022-11-07T22:33:43.120Z,99408.88
2022-11-07T22:36:32.358Z,99409.13
2022-11-07T22:39:20.575Z,99416.75
2022-11-07T22:42:09.044Z,99414.13
2022-11-07T22:44:57.543Z,99410.94
2022-11-07T22:47:48.320Z,99398.88
2022-11-07T22:50:36.921Z,99403.81
2022-11-07T22:53:26.445Z,99386.78
2022-11-07T22:56:17.517Z,99388.59
2022-11-07T22:59:07.512Z,99393.03
2022-11-07T23:01:58.955Z,99386.22
2022-11-07T23:04:48.021Z,99392.50
2022-11-07T23:07:36.324Z,99381.50
2022-11-07T23:10:26.632Z,99388.00
2022-11-07T23:13:14.628Z,99384.09
2022-11-07T23:16:03.209Z,99385.34
2022-11-07T23:18:52.576Z,99389.81
2022-11-07T23:21:41.264Z,99394.47
2022-11-07T23:24:29.558Z,99387.63
2022-11-07T23:27:20.298Z,99383.41
2022-11-07T23:30:09.973Z,99384.91
2022-11-07T23:32:58.012Z,99377.06
2022-11-07T23:35:48.220Z,99380.97
2022-11-07T23:38:36.453Z,99380.22
2022-11-07T23:41:25.015Z,99379.66
2022-11-07T23:44:15.396Z,99381.19
2022-11-07T23:47:20.961Z,99383.72
2022-11-07T23:50:28.475Z,99381.09
2022-11-07T23:53:30.137Z,99379.44
2022-11-07T23:56:18.635Z,99379.94
2022-11-07T23:59:24.931Z,99381.22
